sensor_id;sensor_type;location;lat;lon;timestamp;temperature;humidity
30851;DHT22;17567;48.382;9.102;2023-06-14T00:03:44;10.60;99.90
30851;DHT22;17567;48.382;9.102;2023-06-14T00:08:45;10.50;99.90
30851;DHT22;17567;48.382;9.102;2023-06-14T00:13:46;10.40;99.90
30851;DHT22;17567;48.382;9.102;2023-06-14T00:18:47;10.40;99.90
30851;DHT22;17567;48.382;9.102;2023-06-14T00:23:48;10.30;99.90
30851;DHT22;17567;48.382;9.102;2023-06-14T00:28:48;10.40;99.90
30851;DHT22;17567;48.382;9.102;2023-06-14T00:33:49;10.50;99.90
30851;DHT22;17567;48.382;9.102;2023-06-14T00:38:50;10.60;99.90
30851;DHT22;17567;48.382;9.102;2023-06-14T00:43:50;10.70;99.90
30851;DHT22;17567;48.382;9.102;2023-06-14T00:48:52;10.70;99.90
30851;DHT22;17567;48.382;9.102;2023-06-14T00:53:53;10.70;99.90
30851;DHT22;17567;48.382;9.102;2023-06-14T00:58:53;10.70;99.90
30851;DHT22;17567;48.382;9.102;2023-06-14T01:03:55;10.60;99.90
30851;DHT22;17567;48.382;9.102;2023-06-14T01:39:37;9.90;99.90
30851;DHT22;17567;48.382;9.102;2023-06-14T01:44:39;9.70;99.90
30851;DHT22;17567;48.382;9.102;2023-06-14T01:49:40;9.70;99.90
30851;DHT22;17567;48.382;9.102;2023-06-14T01:54:41;9.70;99.90
30851;DHT22;17567;48.382;9.102;2023-06-14T01:59:42;9.40;99.90
30851;DHT22;17567;48.382;9.102;2023-06-14T02:04:48;9.30;99.90
30851;DHT22;17567;48.382;9.102;2023-06-14T02:09:49;9.50;99.90
30851;DHT22;17567;48.382;9.102;2023-06-14T02:14:50;9.20;99.90
30851;DHT22;17567;48.382;9.102;2023-06-14T02:19:50;9.10;99.90
30851;DHT22;17567;48.382;9.102;2023-06-14T02:24:51;9.30;99.90
30851;DHT22;17567;48.382;9.102;2023-06-14T02:29:52;9.30;99.90
30851;DHT22;17567;48.382;9.102;2023-06-14T02:34:53;9.30;99.90
30851;DHT22;17567;48.382;9.102;2023-06-14T02:39:53;9.10;99.90
30851;DHT22;17567;48.382;9.102;2023-06-14T02:44:54;9.00;99.90
30851;DHT22;17567;48.382;9.102;2023-06-14T02:49:54;9.00;99.90
30851;DHT22;17567;48.382;9.102;2023-06-14T02:54:55;8.90;99.90
30851;DHT22;17567;48.382;9.102;2023-06-14T02:59:56;8.70;99.90
30851;DHT22;17567;48.382;9.102;2023-06-14T03:04:56;8.80;99.90
30851;DHT22;17567;48.382;9.102;2023-06-14T03:10:01;8.90;99.90
30851;DHT22;17567;48.382;9.102;2023-06-14T03:15:03;8.80;99.90
30851;DHT22;17567;48.382;9.102;2023-06-14T03:20:05;8.70;99.90
30851;DHT22;17567;48.382;9.102;2023-06-14T03:25:06;8.70;99.90
30851;DHT22;17567;48.382;9.102;2023-06-14T03:30:07;8.60;99.90
30851;DHT22;17567;48.382;9.102;2023-06-14T03:35:08;8.50;99.90
30851;DHT22;17567;48.382;9.102;2023-06-14T03:45:18;8.20;99.90
30851;DHT22;17567;48.382;9.102;2023-06-14T03:50:19;8.30;99.90
30851;DHT22;17567;48.382;9.102;2023-06-14T03:55:20;8.20;99.90
30851;DHT22;17567;48.382;9.102;2023-06-14T04:00:20;8.20;99.90
30851;DHT22;17567;48.382;9.102;2023-06-14T04:05:21;8.30;99.90
30851;DHT22;17567;48.382;9.102;2023-06-14T04:10:22;8.40;99.90
30851;DHT22;17567;48.382;9.102;2023-06-14T04:15:22;8.40;99.90
30851;DHT22;17567;48.382;9.102;2023-06-14T04:20:23;8.40;99.90
30851;DHT22;17567;48.382;9.102;2023-06-14T04:25:27;8.50;99.90
30851;DHT22;17567;48.382;9.102;2023-06-14T04:30:28;8.50;99.90
30851;DHT22;17567;48.382;9.102;2023-06-14T04:35:32;8.50;99.90
30851;DHT22;17567;48.382;9.102;2023-06-14T04:40:33;8.60;99.90
30851;DHT22;17567;48.382;9.102;2023-06-14T04:45:34;8.80;99.90
30851;DHT22;17567;48.382;9.102;2023-06-14T04:50:37;8.90;99.90
30851;DHT22;17567;48.382;9.102;2023-06-14T04:55:38;9.10;99.90
30851;DHT22;17567;48.382;9.102;2023-06-14T05:00:40;9.30;99.90
30851;DHT22;17567;48.382;9.102;2023-06-14T05:05:42;9.50;99.90
30851;DHT22;17567;48.382;9.102;2023-06-14T05:10:43;9.60;99.90
30851;DHT22;17567;48.382;9.102;2023-06-14T05:20:45;10.20;99.90
30851;DHT22;17567;48.382;9.102;2023-06-14T05:25:46;10.30;99.90
30851;DHT22;17567;48.382;9.102;2023-06-14T05:30:47;10.40;99.90
30851;DHT22;17567;48.382;9.102;2023-06-14T05:35:47;10.60;99.90
30851;DHT22;17567;48.382;9.102;2023-06-14T05:45:49;11.10;99.90
30851;DHT22;17567;48.382;9.102;2023-06-14T05:50:50;11.30;99.90
30851;DHT22;17567;48.382;9.102;2023-06-14T05:55:51;11.60;99.90
30851;DHT22;17567;48.382;9.102;2023-06-14T06:00:55;12.00;99.90
30851;DHT22;17567;48.382;9.102;2023-06-14T06:05:55;12.30;99.90
30851;DHT22;17567;48.382;9.102;2023-06-14T06:10:56;12.50;99.90
30851;DHT22;17567;48.382;9.102;2023-06-14T06:31:01;13.50;99.90
30851;DHT22;17567;48.382;9.102;2023-06-14T06:36:01;13.70;99.90
30851;DHT22;17567;48.382;9.102;2023-06-14T06:41:02;14.00;99.90
30851;DHT22;17567;48.382;9.102;2023-06-14T06:46:03;14.30;99.90
30851;DHT22;17567;48.382;9.102;2023-06-14T06:51:03;14.50;99.90
30851;DHT22;17567;48.382;9.102;2023-06-14T07:01:06;14.90;99.90
30851;DHT22;17567;48.382;9.102;2023-06-14T07:06:09;15.10;99.90
30851;DHT22;17567;48.382;9.102;2023-06-14T07:11:10;15.30;99.90
30851;DHT22;17567;48.382;9.102;2023-06-14T07:16:11;15.40;99.90
30851;DHT22;17567;48.382;9.102;2023-06-14T07:21:11;15.70;99.90
30851;DHT22;17567;48.382;9.102;2023-06-14T07:26:12;15.90;99.90
30851;DHT22;17567;48.382;9.102;2023-06-14T07:46:23;17.00;99.90
30851;DHT22;17567;48.382;9.102;2023-06-14T07:51:24;17.20;99.90
30851;DHT22;17567;48.382;9.102;2023-06-14T07:56:25;17.60;99.90
30851;DHT22;17567;48.382;9.102;2023-06-14T08:01:25;17.90;99.90
30851;DHT22;17567;48.382;9.102;2023-06-14T08:06:28;18.10;99.90
30851;DHT22;17567;48.382;9.102;2023-06-14T08:11:28;18.30;99.90
30851;DHT22;17567;48.382;9.102;2023-06-14T08:16:29;18.50;99.90
30851;DHT22;17567;48.382;9.102;2023-06-14T08:21:30;18.90;99.90
30851;DHT22;17567;48.382;9.102;2023-06-14T08:26:38;18.90;99.90
30851;DHT22;17567;48.382;9.102;2023-06-14T08:31:59;19.10;99.90
30851;DHT22;17567;48.382;9.102;2023-06-14T08:37:01;19.40;99.90
30851;DHT22;17567;48.382;9.102;2023-06-14T08:42:02;19.70;99.90
30851;DHT22;17567;48.382;9.102;2023-06-14T08:47:05;20.00;99.90
30851;DHT22;17567;48.382;9.102;2023-06-14T08:52:08;20.10;99.90
30851;DHT22;17567;48.382;9.102;2023-06-14T08:57:14;20.40;99.90
30851;DHT22;17567;48.382;9.102;2023-06-14T09:12:21;21.40;99.90
30851;DHT22;17567;48.382;9.102;2023-06-14T09:17:23;21.50;99.90
30851;DHT22;17567;48.382;9.102;2023-06-14T09:22:23;21.90;98.60
30851;DHT22;17567;48.382;9.102;2023-06-14T18:26:25;24.00;83.90
30851;DHT22;17567;48.382;9.102;2023-06-14T18:31:28;23.90;65.00
30851;DHT22;17567;48.382;9.102;2023-06-14T18:36:29;23.60;65.60
30851;DHT22;17567;48.382;9.102;2023-06-14T18:56:39;22.90;99.90
30851;DHT22;17567;48.382;9.102;2023-06-14T19:01:40;22.60;70.20
30851;DHT22;17567;48.382;9.102;2023-06-14T19:06:41;22.30;69.80
30851;DHT22;17567;48.382;9.102;2023-06-14T19:11:41;22.10;70.20
30851;DHT22;17567;48.382;9.102;2023-06-14T19:16:43;22.00;72.90
30851;DHT22;17567;48.382;9.102;2023-06-14T19:21:44;21.90;75.50
30851;DHT22;17567;48.382;9.102;2023-06-14T19:26:44;21.50;88.70
30851;DHT22;17567;48.382;9.102;2023-06-14T19:46:51;19.80;99.90
30851;DHT22;17567;48.382;9.102;2023-06-14T19:51:52;19.60;86.60
30851;DHT22;17567;48.382;9.102;2023-06-14T19:56:53;19.30;87.20
30851;DHT22;17567;48.382;9.102;2023-06-14T20:01:53;19.10;89.00
30851;DHT22;17567;48.382;9.102;2023-06-14T20:06:54;18.90;88.10
30851;DHT22;17567;48.382;9.102;2023-06-14T20:11:58;18.40;89.90
30851;DHT22;17567;48.382;9.102;2023-06-14T20:16:59;18.30;90.40
30851;DHT22;17567;48.382;9.102;2023-06-14T20:22:00;17.80;92.00
30851;DHT22;17567;48.382;9.102;2023-06-14T20:27:01;17.80;92.50
30851;DHT22;17567;48.382;9.102;2023-06-14T20:32:01;17.70;92.50
30851;DHT22;17567;48.382;9.102;2023-06-14T20:37:02;17.60;93.40
30851;DHT22;17567;48.382;9.102;2023-06-14T20:42:03;17.70;93.60
30851;DHT22;17567;48.382;9.102;2023-06-14T20:47:04;17.40;99.90
30851;DHT22;17567;48.382;9.102;2023-06-14T20:52:05;16.90;94.50
30851;DHT22;17567;48.382;9.102;2023-06-14T21:02:18;16.60;95.70
30851;DHT22;17567;48.382;9.102;2023-06-14T21:07:18;16.30;97.50
30851;DHT22;17567;48.382;9.102;2023-06-14T21:12:19;16.10;98.00
30851;DHT22;17567;48.382;9.102;2023-06-14T21:17:19;15.90;98.20
30851;DHT22;17567;48.382;9.102;2023-06-14T21:22:20;15.70;99.00
30851;DHT22;17567;48.382;9.102;2023-06-14T21:27:21;15.70;99.80
30851;DHT22;17567;48.382;9.102;2023-06-14T21:32:21;15.50;99.90
30851;DHT22;17567;48.382;9.102;2023-06-14T21:37:22;15.20;99.90
30851;DHT22;17567;48.382;9.102;2023-06-14T21:42:23;14.80;99.90
30851;DHT22;17567;48.382;9.102;2023-06-14T21:47:23;14.60;99.90
30851;DHT22;17567;48.382;9.102;2023-06-14T21:52:24;14.30;99.90
30851;DHT22;17567;48.382;9.102;2023-06-14T21:57:25;13.80;99.90
30851;DHT22;17567;48.382;9.102;2023-06-14T22:02:25;13.80;99.90
30851;DHT22;17567;48.382;9.102;2023-06-14T22:07:26;13.90;99.90
30851;DHT22;17567;48.382;9.102;2023-06-14T22:12:31;13.90;99.90
30851;DHT22;17567;48.382;9.102;2023-06-14T22:17:31;13.90;99.90
30851;DHT22;17567;48.382;9.102;2023-06-14T22:22:32;13.70;99.90
30851;DHT22;17567;48.382;9.102;2023-06-14T22:27:38;13.50;99.90
30851;DHT22;17567;48.382;9.102;2023-06-14T22:32:47;13.40;99.90
30851;DHT22;17567;48.382;9.102;2023-06-14T22:37:49;13.30;99.90
30851;DHT22;17567;48.382;9.102;2023-06-14T22:42:50;13.40;99.90
30851;DHT22;17567;48.382;9.102;2023-06-14T22:47:53;13.40;99.90
30851;DHT22;17567;48.382;9.102;2023-06-14T22:52:53;13.30;99.90
30851;DHT22;17567;48.382;9.102;2023-06-14T22:57:54;13.30;99.90
30851;DHT22;17567;48.382;9.102;2023-06-14T23:02:55;13.30;99.90
30851;DHT22;17567;48.382;9.102;2023-06-14T23:07:55;13.30;99.90
30851;DHT22;17567;48.382;9.102;2023-06-14T23:12:56;13.30;99.90
30851;DHT22;17567;48.382;9.102;2023-06-14T23:17:59;13.20;99.90
30851;DHT22;17567;48.382;9.102;2023-06-14T23:22:59;13.20;99.90
30851;DHT22;17567;48.382;9.102;2023-06-14T23:28:06;13.20;99.90
30851;DHT22;17567;48.382;9.102;2023-06-14T23:33:10;13.20;99.90
30851;DHT22;17567;48.382;9.102;2023-06-14T23:38:10;13.20;99.90
30851;DHT22;17567;48.382;9.102;2023-06-14T23:43:12;13.20;99.90
30851;DHT22;17567;48.382;9.102;2023-06-14T23:48:14;13.20;99.90
30851;DHT22;17567;48.382;9.102;2023-06-14T23:53:16;13.20;99.90
30851;DHT22;17567;48.382;9.102;2023-06-14T23:58:16;13.10;99.90
